Time;durP1;ratioP1;P1;durP2;ratioP2;P2;SDS_P1;SDS_P2;PMS_P1;PMS_P2;Temp;Humidity;BMP_temperature;BMP_pressure;BME280_temperature;BME280_humidity;BME280_pressure;Samples;Min_cycle;Max_cycle;Signal;HPM_P1;HPM_P2
2023/10/19 00:01:51;;;;;;;21.53;16.00;;;;;;;;;;4927027;29;20227;-82
2023/10/19 00:04:56;;;;;;;20.83;17.00;;;;;;;;;;4927725;29;20196;-82
2023/10/19 00:08:15;;;;;;;22.93;17.07;;;;;;;;;;4927043;29;20665;-83
2023/10/19 00:11:23;;;;;;;22.47;17.03;;;;;;;;;;4926863;29;20236;-82
2023/10/19 00:14:27;;;;;;;23.57;17.53;;;;;;;;;;4928042;29;20186;-83
2023/10/19 00:17:32;;;;;;;22.17;16.93;;;;;;;;;;4916224;29;20192;-82
2023/10/19 00:24:04;;;;;;;20.30;17.17;;;;;;;;;;4921417;29;20245;-83
2023/10/19 00:27:16;;;;;;;25.57;18.63;;;;;;;;;;4927305;29;20185;-82
2023/10/19 00:30:23;;;;;;;25.73;18.40;;;;;;;;;;4916009;29;20194;-83
2023/10/19 00:33:28;;;;;;;23.30;18.57;;;;;;;;;;4928877;29;20190;-82
2023/10/19 00:36:33;;;;;;;23.80;18.23;;;;;;;;;;4926891;29;20196;-83
2023/10/19 00:39:50;;;;;;;27.13;19.53;;;;;;;;;;4915910;29;20193;-82
2023/10/19 00:42:55;;;;;;;24.03;17.87;;;;;;;;;;4914238;29;20232;-82
2023/10/19 00:46:07;;;;;;;21.57;17.30;;;;;;;;;;4902980;29;20740;-82
2023/10/19 00:49:14;;;;;;;24.53;19.37;;;;;;;;;;4914331;29;20188;-82
2023/10/19 00:52:19;;;;;;;22.90;19.23;;;;;;;;;;4914612;29;20247;-82
2023/10/19 00:55:27;;;;;;;24.80;18.50;;;;;;;;;;4928560;29;20661;-83
2023/10/19 00:58:35;;;;;;;23.63;18.87;;;;;;;;;;4915832;29;20189;-83
2023/10/19 01:01:44;;;;;;;26.37;20.33;;;;;;;;;;4905809;29;20227;-83
2023/10/19 01:05:05;;;;;;;22.30;17.70;;;;;;;;;;4916104;29;20224;-83
2023/10/19 01:08:26;;;;;;;25.80;18.90;;;;;;;;;;4923123;29;20553;-83
2023/10/19 01:11:33;;;;;;;23.83;18.30;;;;;;;;;;4921118;29;20228;-83
2023/10/19 01:14:40;;;;;;;25.03;19.00;;;;;;;;;;4900192;29;20192;-83
2023/10/19 01:17:51;;;;;;;24.50;18.80;;;;;;;;;;4910092;29;20210;-82
2023/10/19 01:20:55;;;;;;;23.40;18.40;;;;;;;;;;4921050;29;20196;-83
2023/10/19 01:23:59;;;;;;;26.87;19.73;;;;;;;;;;4899583;29;20229;-83
2023/10/19 01:27:03;;;;;;;23.47;18.67;;;;;;;;;;4922135;29;20204;-82
2023/10/19 01:30:09;;;;;;;24.70;17.77;;;;;;;;;;4910044;29;20193;-83
2023/10/19 01:33:15;;;;;;;25.77;18.33;;;;;;;;;;4898867;29;20188;-81
2023/10/19 01:39:26;;;;;;;21.57;17.73;;;;;;;;;;4909989;29;20200;-83
2023/10/19 01:42:30;;;;;;;25.20;19.67;;;;;;;;;;4909577;29;20231;-83
2023/10/19 01:45:34;;;;;;;24.30;19.33;;;;;;;;;;4899322;29;20197;-82
2023/10/19 01:48:40;;;;;;;24.40;19.70;;;;;;;;;;4920759;29;20192;-82
2023/10/19 01:51:47;;;;;;;27.57;18.87;;;;;;;;;;4909729;29;20760;-87
2023/10/19 01:54:58;;;;;;;24.83;18.37;;;;;;;;;;4909241;29;20189;-82
2023/10/19 01:58:03;;;;;;;24.37;19.23;;;;;;;;;;4898663;29;20555;-83
2023/10/19 02:01:14;;;;;;;27.47;19.83;;;;;;;;;;4908922;29;20732;-83
2023/10/19 02:04:18;;;;;;;28.33;19.40;;;;;;;;;;4920104;29;20589;-83
2023/10/19 02:07:23;;;;;;;25.03;18.30;;;;;;;;;;4909336;29;20188;-82
2023/10/19 02:10:27;;;;;;;24.77;19.67;;;;;;;;;;4887340;29;20193;-83
2023/10/19 02:13:31;;;;;;;24.67;18.93;;;;;;;;;;4898415;29;20566;-82
2023/10/19 02:16:36;;;;;;;23.20;18.60;;;;;;;;;;4898552;29;20192;-83
2023/10/19 02:19:41;;;;;;;23.57;19.37;;;;;;;;;;4908362;29;20527;-82
2023/10/19 02:22:45;;;;;;;29.07;19.17;;;;;;;;;;4908095;29;20725;-82
2023/10/19 02:25:50;;;;;;;23.13;18.03;;;;;;;;;;4908582;29;20185;-82
2023/10/19 02:28:56;;;;;;;25.10;18.33;;;;;;;;;;4887939;29;20193;-84
2023/10/19 02:32:04;;;;;;;25.03;19.23;;;;;;;;;;4908636;29;20678;-82
2023/10/19 02:35:09;;;;;;;22.53;16.93;;;;;;;;;;4909038;29;20266;-82
2023/10/19 02:38:13;;;;;;;22.70;18.00;;;;;;;;;;4908635;29;20284;-82
2023/10/19 02:41:19;;;;;;;26.17;19.30;;;;;;;;;;4919513;29;20303;-83
2023/10/19 02:44:25;;;;;;;28.20;19.10;;;;;;;;;;4897704;29;20232;-82
2023/10/19 02:47:29;;;;;;;25.20;20.30;;;;;;;;;;4908218;29;20671;-83
2023/10/19 02:50:33;;;;;;;25.77;18.70;;;;;;;;;;4908438;29;20200;-83
2023/10/19 02:53:40;;;;;;;26.47;20.07;;;;;;;;;;4920061;29;20192;-83
2023/10/19 02:56:49;;;;;;;24.77;19.13;;;;;;;;;;4920499;29;20189;-83
2023/10/19 02:59:53;;;;;;;26.27;19.90;;;;;;;;;;4908250;29;20208;-82
2023/10/19 03:02:59;;;;;;;27.07;20.10;;;;;;;;;;4898152;29;20237;-83
2023/10/19 03:06:05;;;;;;;29.20;23.10;;;;;;;;;;4908580;29;20198;-83
2023/10/19 03:09:15;;;;;;;28.50;22.03;;;;;;;;;;4908554;29;20198;-83
2023/10/19 03:12:21;;;;;;;28.37;21.33;;;;;;;;;;4897135;29;20239;-82
2023/10/19 03:15:27;;;;;;;28.87;20.80;;;;;;;;;;4919239;29;20566;-82
2023/10/19 03:18:31;;;;;;;26.33;21.63;;;;;;;;;;4920337;29;20666;-82
2023/10/19 03:21:49;;;;;;;27.93;21.20;;;;;;;;;;4908221;29;20228;-83
2023/10/19 03:25:11;;;;;;;27.00;21.33;;;;;;;;;;4919467;29;20693;-82
2023/10/19 03:28:17;;;;;;;26.50;20.57;;;;;;;;;;4907868;29;20577;-82
2023/10/19 03:31:24;;;;;;;27.23;19.87;;;;;;;;;;4907880;29;20227;-81
2023/10/19 03:34:32;;;;;;;28.00;20.73;;;;;;;;;;4920049;29;20192;-82
2023/10/19 03:37:37;;;;;;;27.13;20.63;;;;;;;;;;4907837;29;20193;-82
2023/10/19 03:40:41;;;;;;;27.03;21.57;;;;;;;;;;4897038;29;20192;-82
2023/10/19 03:43:45;;;;;;;25.63;20.93;;;;;;;;;;4907737;29;20252;-81
2023/10/19 03:46:54;;;;;;;26.00;21.10;;;;;;;;;;4907611;29;20189;-83
2023/10/19 03:50:03;;;;;;;29.27;21.87;;;;;;;;;;4907783;29;20193;-83
2023/10/19 03:53:12;;;;;;;29.13;20.87;;;;;;;;;;4920034;29;20189;-82
2023/10/19 03:56:17;;;;;;;24.53;19.83;;;;;;;;;;4918699;29;20196;-83
2023/10/19 03:59:21;;;;;;;27.17;22.10;;;;;;;;;;4896529;29;20200;-82
2023/10/19 04:02:29;;;;;;;30.33;22.37;;;;;;;;;;4918968;29;20818;-82
2023/10/19 04:05:38;;;;;;;28.87;22.27;;;;;;;;;;4918339;29;20208;-83
2023/10/19 04:08:50;;;;;;;27.60;21.47;;;;;;;;;;4919295;29;20558;-83
2023/10/19 04:11:56;;;;;;;27.83;21.07;;;;;;;;;;4907495;29;20243;-81
2023/10/19 04:15:09;;;;;;;29.23;21.33;;;;;;;;;;4918766;29;20193;-82
2023/10/19 04:18:13;;;;;;;27.17;21.60;;;;;;;;;;4919441;29;20211;-82
2023/10/19 04:21:17;;;;;;;26.30;21.33;;;;;;;;;;4918943;29;20232;-83
2023/10/19 04:24:21;;;;;;;33.23;23.03;;;;;;;;;;4906764;29;20216;-83
2023/10/19 04:27:26;;;;;;;30.33;22.90;;;;;;;;;;4918107;29;20192;-82
2023/10/19 04:30:33;;;;;;;31.80;23.17;;;;;;;;;;4907130;29;20200;-83
2023/10/19 04:33:37;;;;;;;29.00;22.10;;;;;;;;;;4919317;29;20188;-83
2023/10/19 04:36:42;;;;;;;29.23;22.50;;;;;;;;;;4897268;29;20194;-83
2023/10/19 04:39:47;;;;;;;30.73;23.50;;;;;;;;;;4907619;29;20206;-82
2023/10/19 04:42:53;;;;;;;29.07;22.87;;;;;;;;;;4918755;29;20245;-82
2023/10/19 04:45:58;;;;;;;28.93;22.80;;;;;;;;;;4921746;29;20217;-83
2023/10/19 04:49:06;;;;;;;32.67;23.50;;;;;;;;;;4911817;29;20193;-82
2023/10/19 04:52:10;;;;;;;28.70;22.00;;;;;;;;;;4922535;29;20232;-82
2023/10/19 04:55:15;;;;;;;31.03;23.83;;;;;;;;;;4922238;29;20196;-82
2023/10/19 04:58:18;;;;;;;29.00;21.97;;;;;;;;;;4921552;29;20673;-82
2023/10/19 05:01:23;;;;;;;30.97;22.30;;;;;;;;;;4921517;29;20249;-82
2023/10/19 05:04:28;;;;;;;27.90;21.40;;;;;;;;;;4921809;29;20216;-81
2023/10/19 05:07:33;;;;;;;29.30;22.57;;;;;;;;;;4910665;29;20260;-83
2023/10/19 05:10:37;;;;;;;31.40;23.20;;;;;;;;;;4923498;29;20677;-81
2023/10/19 05:13:41;;;;;;;27.23;22.63;;;;;;;;;;4958127;23;20247;-85
2023/10/19 05:16:46;;;;;;;27.30;21.57;;;;;;;;;;4920417;29;20206;-85
2023/10/19 05:19:50;;;;;;;29.80;22.60;;;;;;;;;;4920214;29;20555;-86
2023/10/19 05:22:54;;;;;;;32.70;24.63;;;;;;;;;;4921201;29;20229;-87
2023/10/19 05:26:04;;;;;;;28.80;22.23;;;;;;;;;;4886507;29;20221;-86
2023/10/19 05:29:09;;;;;;;26.93;21.03;;;;;;;;;;4884696;29;20205;-85
2023/10/19 05:32:13;;;;;;;27.63;22.07;;;;;;;;;;4897033;29;20235;-85
2023/10/19 05:35:23;;;;;;;31.27;22.33;;;;;;;;;;4907891;29;20181;-85
2023/10/19 05:38:27;;;;;;;29.20;22.37;;;;;;;;;;4899778;29;20196;-85
2023/10/19 05:41:31;;;;;;;29.20;22.83;;;;;;;;;;4922121;29;20208;-85
2023/10/19 05:44:35;;;;;;;25.70;20.70;;;;;;;;;;4922769;29;20217;-85
2023/10/19 05:47:39;;;;;;;30.23;22.33;;;;;;;;;;4921633;29;20196;-85
2023/10/19 05:50:43;;;;;;;31.60;23.03;;;;;;;;;;4921975;29;20270;-85
2023/10/19 05:53:48;;;;;;;28.70;21.97;;;;;;;;;;4910790;29;20227;-85
2023/10/19 05:56:52;;;;;;;29.60;23.17;;;;;;;;;;4909026;29;20184;-85
2023/10/19 05:59:56;;;;;;;38.87;26.20;;;;;;;;;;4921043;29;20759;-85
2023/10/19 06:03:00;;;;;;;76.30;43.37;;;;;;;;;;4910725;29;20232;-84
2023/10/19 06:06:04;;;;;;;57.30;35.73;;;;;;;;;;4903254;29;20563;-85
2023/10/19 06:09:09;;;;;;;52.27;33.93;;;;;;;;;;4881650;29;20197;-84
2023/10/19 06:12:13;;;;;;;57.83;35.87;;;;;;;;;;4903745;29;20248;-85
2023/10/19 06:15:20;;;;;;;44.83;31.23;;;;;;;;;;4904037;29;20186;-85
2023/10/19 06:18:25;;;;;;;38.17;28.03;;;;;;;;;;4905418;29;20190;-84
2023/10/19 06:21:32;;;;;;;35.97;25.37;;;;;;;;;;4871332;29;20193;-85
2023/10/19 06:24:46;;;;;;;31.23;22.93;;;;;;;;;;4899574;29;20225;-85
2023/10/19 06:27:52;;;;;;;30.10;23.73;;;;;;;;;;4892567;29;20190;-85
2023/10/19 06:30:57;;;;;;;27.93;22.30;;;;;;;;;;4881380;29;20197;-85
2023/10/19 06:34:01;;;;;;;34.20;23.17;;;;;;;;;;4904364;29;20190;-85
2023/10/19 06:37:08;;;;;;;29.93;23.60;;;;;;;;;;4914400;29;20192;-85
2023/10/19 06:40:14;;;;;;;31.03;23.20;;;;;;;;;;4892720;29;20532;-86
2023/10/19 06:43:21;;;;;;;31.20;23.83;;;;;;;;;;4890900;29;20232;-85
2023/10/19 06:46:25;;;;;;;28.47;22.33;;;;;;;;;;4901835;29;20232;-85
2023/10/19 06:49:29;;;;;;;29.23;22.50;;;;;;;;;;4902045;29;20203;-85
2023/10/19 06:52:35;;;;;;;27.63;22.13;;;;;;;;;;4901819;29;20230;-84
2023/10/19 06:55:40;;;;;;;28.60;22.67;;;;;;;;;;4879683;29;20296;-84
2023/10/19 06:58:45;;;;;;;31.70;23.23;;;;;;;;;;4869613;29;20189;-85
2023/10/19 07:01:50;;;;;;;27.43;22.03;;;;;;;;;;4891658;29;20255;-85
2023/10/19 07:04:54;;;;;;;23.33;18.63;;;;;;;;;;4902012;29;20220;-85
2023/10/19 07:07:59;;;;;;;32.13;21.77;;;;;;;;;;4901521;29;20197;-84
2023/10/19 07:11:04;;;;;;;26.63;20.77;;;;;;;;;;4903010;29;20194;-82
2023/10/19 07:14:10;;;;;;;26.83;20.90;;;;;;;;;;4872640;29;20555;-82
2023/10/19 07:17:14;;;;;;;23.77;18.83;;;;;;;;;;4905247;29;20212;-82
2023/10/19 07:20:25;;;;;;;23.93;18.90;;;;;;;;;;4882498;29;20196;-82
2023/10/19 07:23:29;;;;;;;26.00;20.13;;;;;;;;;;4872136;29;20228;-82
2023/10/19 07:26:41;;;;;;;25.17;18.50;;;;;;;;;;4882932;29;20587;-82
2023/10/19 07:29:47;;;;;;;27.03;20.23;;;;;;;;;;4872344;29;20204;-82
2023/10/19 07:32:58;;;;;;;24.20;19.00;;;;;;;;;;4904105;29;20228;-82
2023/10/19 07:36:08;;;;;;;26.23;20.83;;;;;;;;;;4903130;29;20547;-83
2023/10/19 07:39:18;;;;;;;26.63;19.70;;;;;;;;;;4872057;29;20206;-82
2023/10/19 07:42:24;;;;;;;24.37;19.23;;;;;;;;;;4892652;29;20240;-82
2023/10/19 07:45:28;;;;;;;24.20;19.53;;;;;;;;;;4904218;29;20240;-82
2023/10/19 07:48:33;;;;;;;27.63;19.63;;;;;;;;;;4904453;29;20205;-83
2023/10/19 07:51:49;;;;;;;22.37;18.37;;;;;;;;;;4884460;29;20201;-83
2023/10/19 07:54:54;;;;;;;23.43;18.80;;;;;;;;;;4883957;29;20201;-82
2023/10/19 07:58:06;;;;;;;26.23;19.20;;;;;;;;;;4882677;29;20200;-83
2023/10/19 08:01:11;;;;;;;23.83;17.87;;;;;;;;;;4892239;29;20193;-82
2023/10/19 08:04:15;;;;;;;22.67;16.80;;;;;;;;;;4880905;29;20189;-83
2023/10/19 08:07:19;;;;;;;21.93;17.83;;;;;;;;;;4880749;29;20196;-82
2023/10/19 08:10:26;;;;;;;26.00;18.33;;;;;;;;;;4891873;29;20212;-82
2023/10/19 08:13:32;;;;;;;20.13;16.33;;;;;;;;;;4891569;29;20244;-83
2023/10/19 08:16:38;;;;;;;19.73;15.80;;;;;;;;;;4877045;29;20184;-84
2023/10/19 08:19:42;;;;;;;19.63;16.97;;;;;;;;;;4889256;29;20578;-83
2023/10/19 08:22:52;;;;;;;22.10;16.83;;;;;;;;;;4884143;29;20224;-82
2023/10/19 08:26:08;;;;;;;22.50;17.23;;;;;;;;;;4895467;29;20224;-82
2023/10/19 08:29:13;;;;;;;24.03;18.63;;;;;;;;;;4874413;29;20193;-83
2023/10/19 08:32:18;;;;;;;20.47;17.60;;;;;;;;;;4906231;29;20227;-83
2023/10/19 08:35:25;;;;;;;25.63;17.47;;;;;;;;;;4874814;29;20200;-83
2023/10/19 08:38:30;;;;;;;20.60;17.40;;;;;;;;;;4885436;29;20217;-82
2023/10/19 08:41:37;;;;;;;19.63;16.60;;;;;;;;;;4894693;29;20196;-83
2023/10/19 08:44:42;;;;;;;22.57;17.87;;;;;;;;;;4895444;29;20554;-82
2023/10/19 08:47:56;;;;;;;21.40;17.27;;;;;;;;;;4895322;29;20193;-83
2023/10/19 08:51:06;;;;;;;22.43;17.30;;;;;;;;;;4907086;29;20193;-82
2023/10/19 08:54:11;;;;;;;22.20;17.40;;;;;;;;;;4873797;29;20220;-82
2023/10/19 08:57:16;;;;;;;22.43;16.87;;;;;;;;;;4884046;29;20197;-83
2023/10/19 09:00:24;;;;;;;21.07;16.60;;;;;;;;;;4884120;29;20192;-82
2023/10/19 09:03:29;;;;;;;39.60;25.50;;;;;;;;;;4906546;29;20237;-83
2023/10/19 09:06:41;;;;;;;33.30;21.50;;;;;;;;;;4881475;29;20224;-84
2023/10/19 09:09:47;;;;;;;27.23;20.70;;;;;;;;;;4901840;29;20577;-83
2023/10/19 09:13:07;;;;;;;23.73;18.47;;;;;;;;;;4879301;29;20736;-83
2023/10/19 09:16:11;;;;;;;20.83;17.90;;;;;;;;;;4890224;29;20185;-83
2023/10/19 09:19:16;;;;;;;21.47;15.77;;;;;;;;;;4881447;29;20297;-83
2023/10/19 09:22:22;;;;;;;22.07;16.23;;;;;;;;;;4868517;29;20236;-83
2023/10/19 09:25:26;;;;;;;21.37;17.00;;;;;;;;;;4889775;29;20193;-83
2023/10/19 09:28:34;;;;;;;18.87;16.17;;;;;;;;;;4901595;29;20201;-83
2023/10/19 09:31:38;;;;;;;25.10;17.67;;;;;;;;;;4879032;29;20192;-83
2023/10/19 09:34:44;;;;;;;19.07;15.70;;;;;;;;;;4890308;29;20196;-83
2023/10/19 09:37:49;;;;;;;17.13;14.77;;;;;;;;;;4900580;29;20189;-83
2023/10/19 09:40:54;;;;;;;17.90;14.10;;;;;;;;;;4900563;29;20193;-83
2023/10/19 09:44:09;;;;;;;20.10;14.60;;;;;;;;;;4901115;29;20193;-83
2023/10/19 09:47:30;;;;;;;18.90;13.87;;;;;;;;;;4901013;29;20220;-83
2023/10/19 09:50:34;;;;;;;17.73;13.17;;;;;;;;;;4900955;29;20205;-83
2023/10/19 09:53:39;;;;;;;18.13;13.67;;;;;;;;;;4900910;29;20236;-83
2023/10/19 09:56:49;;;;;;;15.93;13.40;;;;;;;;;;4900361;29;20193;-83
2023/10/19 10:00:07;;;;;;;16.03;13.43;;;;;;;;;;4868101;29;20559;-83
2023/10/19 10:03:53;;;;;;;15.57;13.07;;;;;;;;;;4901205;29;20236;-83
2023/10/19 10:07:00;;;;;;;15.33;12.60;;;;;;;;;;4900717;29;20710;-83
2023/10/19 10:10:08;;;;;;;19.67;14.33;;;;;;;;;;4878677;29;20205;-83
2023/10/19 10:13:24;;;;;;;15.30;12.87;;;;;;;;;;4878929;29;20244;-83
2023/10/19 10:16:29;;;;;;;13.10;10.97;;;;;;;;;;4900210;29;20556;-83
2023/10/19 10:19:33;;;;;;;16.30;11.47;;;;;;;;;;4866989;29;20201;-83
2023/10/19 10:22:38;;;;;;;13.53;11.30;;;;;;;;;;4890265;29;20235;-83
2023/10/19 10:25:48;;;;;;;13.77;11.93;;;;;;;;;;4877589;29;20201;-83
2023/10/19 10:29:23;;;;;;;14.10;11.60;;;;;;;;;;4877829;29;20193;-84
2023/10/19 10:32:44;;;;;;;16.53;12.93;;;;;;;;;;4889122;29;20283;-84
2023/10/19 10:35:54;;;;;;;15.83;12.53;;;;;;;;;;4882723;29;20196;-84
2023/10/19 10:39:05;;;;;;;13.40;11.97;;;;;;;;;;4868036;29;20667;-84
2023/10/19 10:42:16;;;;;;;14.47;11.93;;;;;;;;;;4898565;29;20244;-83
2023/10/19 10:45:25;;;;;;;13.27;11.77;;;;;;;;;;4881688;29;20193;-84
2023/10/19 10:48:30;;;;;;;16.43;13.43;;;;;;;;;;4870546;29;20193;-84
2023/10/19 10:51:35;;;;;;;19.67;14.57;;;;;;;;;;4871792;29;20201;-83
2023/10/19 10:54:41;;;;;;;18.10;13.03;;;;;;;;;;4882346;29;20193;-83
2023/10/19 10:57:46;;;;;;;18.30;14.20;;;;;;;;;;4882280;29;20297;-84
2023/10/19 11:00:56;;;;;;;23.20;13.93;;;;;;;;;;4889714;29;20292;-83
2023/10/19 11:04:11;;;;;;;17.53;13.10;;;;;;;;;;4901508;29;20661;-84
2023/10/19 11:07:19;;;;;;;16.87;13.97;;;;;;;;;;4892592;29;20225;-84
2023/10/19 11:10:31;;;;;;;16.27;13.60;;;;;;;;;;4881928;29;20200;-84
2023/10/19 11:13:35;;;;;;;18.03;14.80;;;;;;;;;;4940211;23;20244;-84
2023/10/19 11:16:39;;;;;;;16.80;13.03;;;;;;;;;;4900724;29;20184;-84
2023/10/19 11:19:43;;;;;;;18.67;13.70;;;;;;;;;;4900154;29;20550;-83
2023/10/19 11:22:48;;;;;;;18.53;14.83;;;;;;;;;;4889844;29;20586;-83
2023/10/19 11:25:59;;;;;;;17.77;14.40;;;;;;;;;;4878359;29;20217;-84
2023/10/19 11:29:05;;;;;;;16.93;14.27;;;;;;;;;;4868253;29;20201;-84
2023/10/19 11:32:09;;;;;;;18.77;14.57;;;;;;;;;;4878755;29;20197;-84
2023/10/19 11:35:13;;;;;;;16.30;14.50;;;;;;;;;;4901190;29;20559;-84
2023/10/19 11:38:18;;;;;;;18.43;14.03;;;;;;;;;;4880071;29;20184;-85
2023/10/19 11:41:23;;;;;;;21.30;15.67;;;;;;;;;;4902290;29;20671;-85
2023/10/19 11:44:27;;;;;;;16.80;14.73;;;;;;;;;;4878576;29;20204;-85
2023/10/19 11:47:32;;;;;;;16.20;14.43;;;;;;;;;;4890092;29;20220;-85
2023/10/19 11:50:36;;;;;;;15.07;13.10;;;;;;;;;;4882865;29;20575;-84
2023/10/19 11:53:42;;;;;;;15.53;12.80;;;;;;;;;;4907020;29;20732;-85
2023/10/19 11:56:48;;;;;;;15.47;13.00;;;;;;;;;;4907422;29;20192;-85
2023/10/19 11:59:54;;;;;;;15.33;12.70;;;;;;;;;;4906325;29;20189;-85
2023/10/19 12:02:59;;;;;;;14.93;12.87;;;;;;;;;;4908281;29;20228;-85
2023/10/19 12:06:06;;;;;;;14.53;12.93;;;;;;;;;;4884722;29;20193;-85
2023/10/19 12:09:16;;;;;;;15.60;13.53;;;;;;;;;;4906402;29;20193;-85
2023/10/19 12:12:21;;;;;;;15.63;13.57;;;;;;;;;;4907931;29;20228;-84
2023/10/19 12:15:25;;;;;;;14.03;12.60;;;;;;;;;;4898333;29;20208;-85
2023/10/19 12:18:29;;;;;;;16.23;14.53;;;;;;;;;;4898357;29;20192;-85
2023/10/19 12:21:37;;;;;;;16.90;13.77;;;;;;;;;;4910292;29;20197;-84
2023/10/19 12:24:41;;;;;;;17.67;14.00;;;;;;;;;;4909368;29;20662;-84
2023/10/19 12:27:46;;;;;;;18.80;14.73;;;;;;;;;;4888333;29;20220;-84
2023/10/19 12:30:50;;;;;;;18.90;15.30;;;;;;;;;;4909965;29;20192;-85
2023/10/19 12:33:54;;;;;;;16.10;14.47;;;;;;;;;;4910901;29;20232;-85
2023/10/19 12:36:59;;;;;;;19.73;16.50;;;;;;;;;;4909495;29;20193;-83
2023/10/19 12:40:25;;;;;;;18.33;15.93;;;;;;;;;;4913103;29;20211;-83
2023/10/19 12:43:30;;;;;;;15.97;14.10;;;;;;;;;;4896309;29;20232;-84
2023/10/19 12:46:36;;;;;;;17.73;14.53;;;;;;;;;;4911662;29;20220;-83
2023/10/19 12:49:41;;;;;;;18.37;15.20;;;;;;;;;;4911373;29;20197;-83
2023/10/19 12:52:45;;;;;;;17.13;13.37;;;;;;;;;;4911666;29;20760;-83
2023/10/19 12:55:49;;;;;;;21.07;15.40;;;;;;;;;;4912051;29;20204;-83
2023/10/19 12:58:54;;;;;;;16.63;14.83;;;;;;;;;;4901524;29;20201;-84
2023/10/19 13:01:58;;;;;;;17.70;14.43;;;;;;;;;;4911904;29;20200;-84
2023/10/19 13:05:03;;;;;;;19.03;13.90;;;;;;;;;;4912179;29;20220;-83
2023/10/19 13:08:08;;;;;;;17.13;14.27;;;;;;;;;;4913024;29;20224;-83
2023/10/19 13:11:14;;;;;;;14.83;12.93;;;;;;;;;;4913151;29;20200;-84
2023/10/19 13:14:18;;;;;;;14.60;12.17;;;;;;;;;;4912040;29;20231;-83
2023/10/19 13:17:24;;;;;;;17.30;13.40;;;;;;;;;;4901789;29;20188;-84
2023/10/19 13:20:35;;;;;;;17.50;13.63;;;;;;;;;;4896216;29;20201;-83
2023/10/19 13:23:41;;;;;;;14.70;13.00;;;;;;;;;;4919468;29;20228;-83
2023/10/19 13:26:46;;;;;;;17.27;13.87;;;;;;;;;;4908531;29;20221;-83
2023/10/19 13:29:51;;;;;;;16.07;13.33;;;;;;;;;;4909738;29;20196;-83
2023/10/19 13:32:55;;;;;;;17.87;13.03;;;;;;;;;;4915138;29;20231;-83
2023/10/19 13:36:00;;;;;;;15.77;13.30;;;;;;;;;;4912453;29;20192;-83
2023/10/19 13:39:04;;;;;;;16.97;13.53;;;;;;;;;;4910711;29;20266;-83
2023/10/19 13:42:09;;;;;;;15.83;12.70;;;;;;;;;;4912873;29;20200;-83
2023/10/19 13:45:36;;;;;;;18.13;13.73;;;;;;;;;;4912398;29;20200;-83
2023/10/19 13:48:41;;;;;;;16.93;13.57;;;;;;;;;;4910916;29;20591;-85
2023/10/19 13:51:45;;;;;;;16.27;14.07;;;;;;;;;;4912262;29;20213;-83
2023/10/19 13:54:49;;;;;;;16.17;13.80;;;;;;;;;;4910312;29;20193;-83
2023/10/19 13:57:55;;;;;;;19.43;14.97;;;;;;;;;;4900421;29;20204;-83
2023/10/19 14:00:59;;;;;;;17.53;14.10;;;;;;;;;;4911064;29;20251;-83
2023/10/19 14:04:03;;;;;;;16.07;14.37;;;;;;;;;;4909187;29;20236;-83
2023/10/19 14:07:08;;;;;;;19.10;14.03;;;;;;;;;;4908701;29;20717;-82
2023/10/19 14:10:13;;;;;;;17.43;14.20;;;;;;;;;;4907145;29;20197;-83
2023/10/19 14:13:18;;;;;;;17.67;14.23;;;;;;;;;;4907761;29;20248;-84
2023/10/19 14:16:25;;;;;;;16.03;13.57;;;;;;;;;;4893858;29;20201;-83
2023/10/19 14:19:29;;;;;;;14.77;13.17;;;;;;;;;;4890768;29;20197;-84
2023/10/19 14:22:36;;;;;;;17.33;13.93;;;;;;;;;;4907094;29;20258;-83
2023/10/19 14:25:41;;;;;;;15.20;13.47;;;;;;;;;;4906865;29;20630;-83
2023/10/19 14:28:45;;;;;;;13.97;12.27;;;;;;;;;;4906350;29;20221;-83
2023/10/19 14:31:50;;;;;;;19.07;13.77;;;;;;;;;;4906668;29;20189;-83
2023/10/19 14:34:54;;;;;;;15.73;14.00;;;;;;;;;;4907294;29;20559;-83
2023/10/19 14:38:00;;;;;;;14.80;13.23;;;;;;;;;;4906656;29;20193;-83
2023/10/19 14:41:04;;;;;;;21.00;14.73;;;;;;;;;;4907499;29;20559;-83
2023/10/19 14:44:09;;;;;;;16.47;13.30;;;;;;;;;;4895064;29;20228;-83
2023/10/19 14:47:13;;;;;;;15.97;13.97;;;;;;;;;;4892869;29;20229;-83
2023/10/19 14:50:19;;;;;;;16.73;13.93;;;;;;;;;;4893197;29;20192;-83
2023/10/19 14:53:24;;;;;;;20.70;14.60;;;;;;;;;;4904714;29;20224;-81
2023/10/19 14:56:28;;;;;;;18.90;14.67;;;;;;;;;;4884665;29;20193;-83
2023/10/19 14:59:35;;;;;;;14.97;13.23;;;;;;;;;;4905813;29;20550;-83
2023/10/19 15:02:39;;;;;;;16.87;13.57;;;;;;;;;;4880020;29;20228;-83
2023/10/19 15:05:43;;;;;;;22.93;14.67;;;;;;;;;;4889042;29;20201;-83
2023/10/19 15:08:48;;;;;;;20.87;14.47;;;;;;;;;;4899664;29;20229;-86
2023/10/19 15:11:54;;;;;;;18.20;14.13;;;;;;;;;;4899469;29;20197;-83
2023/10/19 15:14:59;;;;;;;14.33;12.80;;;;;;;;;;4900443;29;20193;-84
2023/10/19 15:18:06;;;;;;;16.27;12.43;;;;;;;;;;4901707;29;20197;-82
2023/10/19 15:21:13;;;;;;;16.87;13.50;;;;;;;;;;4903280;29;20547;-83
2023/10/19 15:24:18;;;;;;;17.97;12.23;;;;;;;;;;4902905;29;20224;-82
2023/10/19 15:27:23;;;;;;;18.13;14.07;;;;;;;;;;4903229;29;20216;-83
2023/10/19 15:30:27;;;;;;;15.83;13.90;;;;;;;;;;4902725;29;20201;-82
2023/10/19 15:33:32;;;;;;;16.43;14.43;;;;;;;;;;4890581;29;20232;-83
2023/10/19 15:36:36;;;;;;;17.00;14.17;;;;;;;;;;4902985;29;20279;-82
2023/10/19 15:39:42;;;;;;;18.33;15.40;;;;;;;;;;4902674;29;20193;-82
2023/10/19 15:42:46;;;;;;;16.13;14.20;;;;;;;;;;4901873;29;20232;-82
2023/10/19 15:45:51;;;;;;;17.07;13.93;;;;;;;;;;4903047;29;20193;-83
2023/10/19 15:48:56;;;;;;;16.10;14.20;;;;;;;;;;4903568;29;20714;-82
2023/10/19 15:52:00;;;;;;;17.20;13.63;;;;;;;;;;4880181;29;20197;-83
2023/10/19 15:55:05;;;;;;;18.73;13.90;;;;;;;;;;4890449;29;20208;-83
2023/10/19 15:58:11;;;;;;;20.20;15.33;;;;;;;;;;4902403;29;20189;-82
2023/10/19 16:01:15;;;;;;;17.07;14.20;;;;;;;;;;4890785;29;20588;-82
2023/10/19 16:04:20;;;;;;;19.60;14.67;;;;;;;;;;4902161;29;20239;-83
2023/10/19 16:07:25;;;;;;;21.17;15.37;;;;;;;;;;4901502;29;20193;-82
2023/10/19 16:10:29;;;;;;;20.93;16.60;;;;;;;;;;4902764;29;20200;-83
2023/10/19 16:13:34;;;;;;;20.93;15.47;;;;;;;;;;4900849;29;20239;-82
2023/10/19 16:16:38;;;;;;;24.90;17.33;;;;;;;;;;4903094;29;20216;-82
2023/10/19 16:19:43;;;;;;;20.50;16.10;;;;;;;;;;4890465;29;20189;-83
2023/10/19 16:22:47;;;;;;;30.70;18.20;;;;;;;;;;4902681;29;20237;-83
2023/10/19 16:25:59;;;;;;;29.30;17.27;;;;;;;;;;4890498;29;20224;-83
2023/10/19 16:29:16;;;;;;;31.60;17.57;;;;;;;;;;4889814;29;20229;-83
2023/10/19 16:32:22;;;;;;;26.83;17.80;;;;;;;;;;4883439;29;20240;-82
2023/10/19 16:35:26;;;;;;;24.90;15.80;;;;;;;;;;4884801;29;20688;-82
2023/10/19 16:38:30;;;;;;;20.23;15.43;;;;;;;;;;4896541;29;20185;-83
2023/10/19 16:41:35;;;;;;;24.17;16.87;;;;;;;;;;4903681;29;20192;-84
2023/10/19 16:44:40;;;;;;;26.27;18.73;;;;;;;;;;4904041;29;20192;-83
2023/10/19 16:47:44;;;;;;;23.67;19.13;;;;;;;;;;4904683;29;20225;-83
2023/10/19 16:50:48;;;;;;;22.77;17.77;;;;;;;;;;4904559;29;20559;-83
2023/10/19 16:53:53;;;;;;;19.80;16.83;;;;;;;;;;4904046;29;20590;-82
2023/10/19 16:56:58;;;;;;;26.93;18.63;;;;;;;;;;4904311;29;20201;-82
2023/10/19 17:00:02;;;;;;;23.87;18.43;;;;;;;;;;4904205;29;20208;-83
2023/10/19 17:03:06;;;;;;;26.03;19.20;;;;;;;;;;4904297;29;20240;-82
2023/10/19 17:06:11;;;;;;;28.00;19.10;;;;;;;;;;4882191;29;20196;-82
2023/10/19 17:09:19;;;;;;;21.77;17.37;;;;;;;;;;4905114;29;20224;-82
2023/10/19 17:12:25;;;;;;;23.87;17.53;;;;;;;;;;4905247;29;20285;-82
2023/10/19 17:15:29;;;;;;;19.47;16.20;;;;;;;;;;4904186;29;20575;-85
2023/10/19 17:18:33;;;;;;;23.10;17.20;;;;;;;;;;4882492;29;20193;-85
2023/10/19 17:21:40;;;;;;;21.03;16.77;;;;;;;;;;4903012;29;20201;-84
2023/10/19 17:24:45;;;;;;;25.57;18.13;;;;;;;;;;4904653;29;20193;-85
2023/10/19 17:27:49;;;;;;;23.57;17.83;;;;;;;;;;4903865;29;20188;-84
2023/10/19 17:30:54;;;;;;;22.43;18.07;;;;;;;;;;4903751;29;20193;-83
2023/10/19 17:33:58;;;;;;;24.20;18.60;;;;;;;;;;4903899;29;20248;-84
2023/10/19 17:37:02;;;;;;;26.80;20.57;;;;;;;;;;4906122;29;20193;-84
2023/10/19 17:40:07;;;;;;;27.97;20.20;;;;;;;;;;4904369;29;20184;-85
2023/10/19 17:43:14;;;;;;;27.30;19.00;;;;;;;;;;4903189;29;20236;-84
2023/10/19 17:46:18;;;;;;;24.40;19.43;;;;;;;;;;4903380;29;20674;-84
2023/10/19 17:49:22;;;;;;;26.37;20.67;;;;;;;;;;4903769;29;20237;-84
2023/10/19 17:52:27;;;;;;;25.47;20.33;;;;;;;;;;4903422;29;20244;-84
2023/10/19 17:55:32;;;;;;;29.33;22.13;;;;;;;;;;4902584;29;20208;-84
2023/10/19 17:58:36;;;;;;;30.67;21.77;;;;;;;;;;4880943;29;20189;-85
2023/10/19 18:01:41;;;;;;;29.67;21.27;;;;;;;;;;4903242;29;20196;-85
2023/10/19 18:04:49;;;;;;;36.10;23.50;;;;;;;;;;4903606;29;20196;-85
2023/10/19 18:07:53;;;;;;;35.47;22.00;;;;;;;;;;4902787;29;20200;-84
2023/10/19 18:10:58;;;;;;;39.17;23.30;;;;;;;;;;4903183;29;20201;-85